createdAt,value
2022-09-20T00:01:32.848Z,2.20
2022-09-20T00:04:04.345Z,2.00
2022-09-20T00:06:31.354Z,1.70
2022-09-20T00:09:00.724Z,2.10
2022-09-20T00:11:30.728Z,1.70
2022-09-20T00:13:59.646Z,2.10
2022-09-20T00:16:30.611Z,1.60
2022-09-20T00:18:59.315Z,1.60
2022-09-20T00:21:29.430Z,1.50
2022-09-20T00:23:56.982Z,1.60
2022-09-20T00:26:25.120Z,2.20
2022-09-20T00:28:51.790Z,1.90
2022-09-20T00:31:18.889Z,2.30
2022-09-20T00:34:04.488Z,2.10
2022-09-20T00:36:31.563Z,2.20
2022-09-20T00:39:00.212Z,1.90
2022-09-20T00:41:28.907Z,1.40
2022-09-20T00:43:56.041Z,2.20
2022-09-20T00:46:34.679Z,2.10
2022-09-20T00:49:15.832Z,2.70
2022-09-20T00:51:46.573Z,2.00
2022-09-20T00:54:20.167Z,2.50
2022-09-20T00:56:48.284Z,2.40
2022-09-20T00:59:26.617Z,1.90
2022-09-20T01:01:58.993Z,2.40
2022-09-20T01:04:28.112Z,2.50
2022-09-20T01:06:58.908Z,2.20
2022-09-20T01:09:25.761Z,2.40
2022-09-20T01:11:55.345Z,1.70
2022-09-20T01:14:23.874Z,2.30
2022-09-20T01:16:54.620Z,2.30
2022-09-20T01:19:59.908Z,2.00
2022-09-20T01:22:35.102Z,1.80
2022-09-20T01:25:39.392Z,2.30
2022-09-20T01:28:06.235Z,2.50
2022-09-20T01:30:51.432Z,2.00
2022-09-20T01:33:26.869Z,1.90
2022-09-20T01:35:56.313Z,1.80
2022-09-20T01:38:55.715Z,1.70
2022-09-20T01:41:44.500Z,1.80
2022-09-20T01:44:37.145Z,2.00
2022-09-20T01:47:21.698Z,1.90
2022-09-20T01:49:53.942Z,1.30
2022-09-20T01:52:47.432Z,1.80
2022-09-20T01:55:35.734Z,1.50
2022-09-20T01:58:08.386Z,1.50
2022-09-20T02:00:44.812Z,1.50
2022-09-20T02:03:49.123Z,1.90
2022-09-20T02:06:57.494Z,2.00
2022-09-20T02:09:40.076Z,2.10
2022-09-20T02:12:34.522Z,2.10
2022-09-20T02:15:13.511Z,2.20
2022-09-20T02:18:06.598Z,2.00
2022-09-20T02:23:42.280Z,2.20
2022-09-20T02:26:33.371Z,2.40
2022-09-20T02:29:15.257Z,2.20
2022-09-20T02:31:57.102Z,2.00
2022-09-20T02:34:50.929Z,2.30
2022-09-20T02:37:31.629Z,1.60
2022-09-20T02:40:16.644Z,1.50
2022-09-20T02:43:04.102Z,2.50
2022-09-20T02:45:45.892Z,2.20
2022-09-20T02:48:17.444Z,2.70
2022-09-20T02:50:59.151Z,2.60
2022-09-20T02:53:44.558Z,2.60
2022-09-20T02:56:36.936Z,2.40
2022-09-20T02:59:24.778Z,2.30
2022-09-20T03:02:24.343Z,1.80
2022-09-20T03:05:10.563Z,2.70
2022-09-20T03:07:55.700Z,2.40
2022-09-20T03:10:39.549Z,2.00
2022-09-20T03:13:18.424Z,1.80
2022-09-20T03:15:54.982Z,1.80
2022-09-20T03:18:33.639Z,3.20
2022-09-20T03:21:36.106Z,3.20
2022-09-20T03:24:35.067Z,3.40
2022-09-20T03:27:18.906Z,3.10
2022-09-20T03:30:17.875Z,3.30
2022-09-20T03:33:23.394Z,2.40
2022-09-20T03:36:27.990Z,3.40
2022-09-20T03:38:54.533Z,3.30
2022-09-20T03:41:57.304Z,3.40
2022-09-20T03:44:58.073Z,3.40
2022-09-20T03:47:32.404Z,2.20
2022-09-20T03:50:33.097Z,3.80
2022-09-20T03:53:24.379Z,2.50
2022-09-20T03:55:51.036Z,2.50
2022-09-20T03:58:28.543Z,3.70
2022-09-20T04:01:16.107Z,3.70
2022-09-20T04:04:04.377Z,3.70
2022-09-20T04:06:47.802Z,3.10
2022-09-20T04:09:48.085Z,2.60
2022-09-20T04:12:26.491Z,3.70
2022-09-20T04:15:33.718Z,3.20
2022-09-20T04:18:09.075Z,2.90
2022-09-20T04:20:54.642Z,4.50
2022-09-20T04:23:38.203Z,3.40
2022-09-20T04:26:05.050Z,3.10
2022-09-20T04:29:08.104Z,5.60
2022-09-20T04:31:58.746Z,6.10
2022-09-20T04:34:52.451Z,6.30
2022-09-20T04:37:33.829Z,5.90
2022-09-20T04:40:22.013Z,3.70
2022-09-20T04:43:03.832Z,4.90
2022-09-20T04:45:57.795Z,5.70
2022-09-20T04:48:30.387Z,5.10
2022-09-20T04:53:51.542Z,4.40
2022-09-20T04:56:37.115Z,4.70
2022-09-20T04:59:09.745Z,4.30
2022-09-20T05:04:53.049Z,2.90
2022-09-20T05:07:45.271Z,4.20
2022-09-20T05:10:42.926Z,4.40
2022-09-20T05:13:37.723Z,4.00
2022-09-20T05:16:27.463Z,2.60
2022-09-20T05:19:13.010Z,5.50
2022-09-20T05:22:18.621Z,3.00
2022-09-20T05:25:29.919Z,4.20
2022-09-20T05:28:01.130Z,5.10
2022-09-20T05:30:37.478Z,5.20
2022-09-20T05:33:09.945Z,4.50
2022-09-20T05:35:39.630Z,4.90
2022-09-20T05:38:46.932Z,3.70
2022-09-20T05:41:37.892Z,3.90
2022-09-20T05:44:22.792Z,2.60
2022-09-20T05:47:07.593Z,4.30
2022-09-20T05:49:55.442Z,4.90
2022-09-20T05:52:33.617Z,4.60
2022-09-20T05:55:03.171Z,4.50
2022-09-20T05:58:04.366Z,4.70
2022-09-20T06:00:42.807Z,3.50
2022-09-20T06:03:33.089Z,4.30
2022-09-20T06:06:24.209Z,4.70
2022-09-20T06:09:14.003Z,3.70
2022-09-20T06:12:01.668Z,4.40
2022-09-20T06:14:47.195Z,3.80
2022-09-20T06:17:26.897Z,2.60
2022-09-20T06:20:05.538Z,2.60
2022-09-20T06:22:38.188Z,2.70
2022-09-20T06:27:42.688Z,2.80
2022-09-20T06:30:20.824Z,2.50
2022-09-20T06:33:09.739Z,3.50
2022-09-20T06:35:41.500Z,2.10
2022-09-20T06:38:35.518Z,2.50
2022-09-20T06:41:22.098Z,2.50
2022-09-20T06:43:49.529Z,2.30
2022-09-20T06:46:16.702Z,2.40
2022-09-20T06:48:43.445Z,2.50
2022-09-20T06:51:10.617Z,2.30
2022-09-20T06:53:40.714Z,2.60
2022-09-20T06:56:13.953Z,2.80
2022-09-20T06:58:40.458Z,2.70
2022-09-20T07:01:07.103Z,2.20
2022-09-20T07:03:33.770Z,1.90
2022-09-20T07:06:00.804Z,2.40
2022-09-20T07:08:27.352Z,2.20
2022-09-20T07:10:54.242Z,2.20
2022-09-20T07:13:20.900Z,2.10
2022-09-20T07:15:47.892Z,1.70
2022-09-20T07:18:14.658Z,2.20
2022-09-20T07:20:41.521Z,1.80
2022-09-20T07:23:08.162Z,1.90
2022-09-20T07:25:36.083Z,1.70
2022-09-20T07:28:02.923Z,1.80
2022-09-20T07:30:29.614Z,2.10
2022-09-20T07:32:56.210Z,1.60
2022-09-20T07:35:22.803Z,2.00
2022-09-20T07:37:56.493Z,2.30
2022-09-20T07:40:23.650Z,2.30
2022-09-20T07:42:53.075Z,2.10
2022-09-20T07:45:23.358Z,2.50
2022-09-20T07:47:49.915Z,2.20
2022-09-20T07:50:16.594Z,2.10
2022-09-20T07:52:43.136Z,1.90
2022-09-20T07:55:09.759Z,1.80
2022-09-20T07:57:37.676Z,2.00
2022-09-20T08:00:07.127Z,2.40
2022-09-20T08:02:39.280Z,2.40
2022-09-20T08:05:06.224Z,2.60
2022-09-20T08:07:32.968Z,2.60
2022-09-20T08:09:59.529Z,2.10
2022-09-20T08:15:13.852Z,1.70
2022-09-20T08:17:40.574Z,1.90
2022-09-20T08:20:07.672Z,2.20
2022-09-20T08:22:34.399Z,2.00
2022-09-20T08:25:00.893Z,2.20
2022-09-20T08:27:27.349Z,1.80
2022-09-20T08:29:56.767Z,1.90
2022-09-20T08:32:23.300Z,1.80
2022-09-20T08:34:49.916Z,1.90
2022-09-20T08:37:16.365Z,2.40
2022-09-20T08:39:59.032Z,1.90
2022-09-20T08:42:44.838Z,2.40
2022-09-20T08:45:23.361Z,2.10
2022-09-20T08:48:04.991Z,2.00
2022-09-20T08:50:33.954Z,1.80
2022-09-20T08:53:04.448Z,2.20
2022-09-20T08:55:36.397Z,1.90
2022-09-20T08:58:08.409Z,1.90
2022-09-20T09:00:37.477Z,2.00
2022-09-20T09:03:12.231Z,2.00
2022-09-20T09:06:00.593Z,2.20
2022-09-20T09:08:37.589Z,2.10
2022-09-20T09:11:10.790Z,2.20
2022-09-20T09:14:00.987Z,1.90
2022-09-20T09:16:35.462Z,1.80
2022-09-20T09:19:26.616Z,1.90
2022-09-20T09:22:04.975Z,1.80
2022-09-20T09:24:32.413Z,1.70
2022-09-20T09:27:15.883Z,1.90
2022-09-20T09:29:54.310Z,1.70
2022-09-20T09:32:30.430Z,1.20
2022-09-20T09:35:22.221Z,1.40
2022-09-20T09:37:58.093Z,1.50
2022-09-20T09:40:25.814Z,1.00
2022-09-20T09:42:57.782Z,1.00
2022-09-20T09:45:27.288Z,0.90
2022-09-20T09:47:55.843Z,1.40
2022-09-20T09:50:29.971Z,1.50
2022-09-20T09:53:10.381Z,1.30
2022-09-20T09:55:39.893Z,1.80
2022-09-20T09:58:22.083Z,1.60
2022-09-20T10:00:51.721Z,1.10
2022-09-20T10:03:34.648Z,1.50
2022-09-20T10:08:30.427Z,1.40
2022-09-20T10:11:28.623Z,1.40
2022-09-20T10:14:35.450Z,1.40
2022-09-20T10:17:43.511Z,1.10
2022-09-20T10:20:27.606Z,1.60
2022-09-20T10:23:58.591Z,1.30
2022-09-20T10:26:30.151Z,1.50
2022-09-20T10:29:16.861Z,1.30
2022-09-20T10:32:04.782Z,1.30
2022-09-20T10:34:46.571Z,1.40
2022-09-20T10:37:31.695Z,1.30
2022-09-20T10:40:19.416Z,1.10
2022-09-20T10:43:07.876Z,1.30
2022-09-20T10:46:20.615Z,1.50
2022-09-20T10:48:47.883Z,1.50
2022-09-20T10:51:46.639Z,1.00
2022-09-20T10:54:50.470Z,1.50
2022-09-20T10:57:47.434Z,1.50
2022-09-20T11:00:24.399Z,1.60
2022-09-20T11:03:09.240Z,1.50
2022-09-20T11:05:52.951Z,1.50
2022-09-20T11:08:25.749Z,1.30
2022-09-20T11:11:06.005Z,1.50
2022-09-20T11:13:59.212Z,1.30
2022-09-20T11:16:52.482Z,0.90
2022-09-20T11:19:40.931Z,1.10
2022-09-20T11:22:17.848Z,1.10
2022-09-20T11:25:04.687Z,1.40
2022-09-20T11:27:39.435Z,1.50
2022-09-20T11:30:10.612Z,1.20
2022-09-20T11:32:42.715Z,1.20
2022-09-20T11:35:14.089Z,1.20
2022-09-20T11:37:48.431Z,1.30
2022-09-20T11:40:29.349Z,1.40
2022-09-20T11:42:59.416Z,1.20
2022-09-20T11:45:28.855Z,1.20
2022-09-20T11:48:28.002Z,1.30
2022-09-20T11:51:06.644Z,1.40
2022-09-20T11:54:14.824Z,1.30
2022-09-20T11:56:50.366Z,1.60
2022-09-20T11:59:37.598Z,1.30
2022-09-20T12:02:17.617Z,1.50
2022-09-20T12:04:48.914Z,1.30
2022-09-20T12:07:23.819Z,1.60
2022-09-20T12:09:56.283Z,1.50
2022-09-20T12:12:40.948Z,1.60
2022-09-20T12:15:25.949Z,2.10
2022-09-20T12:17:52.481Z,2.60
2022-09-20T12:20:34.935Z,1.40
2022-09-20T12:23:42.407Z,1.30
2022-09-20T12:26:18.003Z,1.00
2022-09-20T12:28:48.823Z,1.20
2022-09-20T12:31:47.247Z,1.50
2022-09-20T12:34:16.658Z,1.60
2022-09-20T12:37:04.598Z,1.20
2022-09-20T12:39:38.163Z,1.10
2022-09-20T12:42:11.069Z,1.10
2022-09-20T12:44:44.076Z,0.90
2022-09-20T12:47:10.639Z,1.50
2022-09-20T12:50:04.797Z,1.40
2022-09-20T12:52:52.645Z,1.80
2022-09-20T12:55:41.924Z,3.70
2022-09-20T12:58:13.539Z,1.30
2022-09-20T13:00:45.600Z,1.70
2022-09-20T13:03:33.204Z,1.30
2022-09-20T13:06:06.031Z,1.30
2022-09-20T13:08:49.847Z,1.20
2022-09-20T13:11:24.542Z,1.00
2022-09-20T13:14:02.012Z,1.60
2022-09-20T13:16:50.886Z,1.30
2022-09-20T13:19:29.246Z,1.80
2022-09-20T13:22:19.113Z,1.30
2022-09-20T13:24:55.184Z,1.50
2022-09-20T13:27:37.441Z,1.20
2022-09-20T13:30:17.050Z,1.40
2022-09-20T13:32:44.438Z,1.50
2022-09-20T13:35:18.702Z,1.80
2022-09-20T13:37:56.078Z,1.50
2022-09-20T13:40:31.392Z,1.50
2022-09-20T13:43:22.224Z,1.50
2022-09-20T13:46:05.743Z,1.60
2022-09-20T13:48:32.546Z,1.80
2022-09-20T13:50:59.080Z,1.20
2022-09-20T13:53:41.011Z,1.40
2022-09-20T13:56:20.852Z,1.60
2022-09-20T13:58:49.149Z,1.30
2022-09-20T14:01:25.294Z,1.50
2022-09-20T14:03:53.898Z,1.30
2022-09-20T14:06:29.109Z,1.90
2022-09-20T14:08:58.234Z,1.20
2022-09-20T14:11:33.143Z,1.30
2022-09-20T14:14:02.124Z,1.60
2022-09-20T14:16:37.428Z,1.40
2022-09-20T14:19:07.280Z,1.80
2022-09-20T14:21:36.201Z,1.60
2022-09-20T14:24:15.386Z,1.80
2022-09-20T14:26:59.079Z,2.00
2022-09-20T14:29:44.567Z,1.50
2022-09-20T14:32:16.531Z,1.80
2022-09-20T14:35:04.964Z,1.70
2022-09-20T14:37:44.984Z,1.60
2022-09-20T14:40:28.564Z,1.80
2022-09-20T14:43:01.333Z,1.70
2022-09-20T14:45:38.286Z,2.10
2022-09-20T14:48:26.248Z,2.10
2022-09-20T14:51:18.278Z,1.80
2022-09-20T14:53:48.235Z,1.90
2022-09-20T14:56:17.162Z,2.30
2022-09-20T14:59:06.110Z,1.80
2022-09-20T15:01:35.562Z,1.90
2022-09-20T15:04:21.633Z,2.10
2022-09-20T15:06:52.530Z,2.30
2022-09-20T15:09:21.291Z,2.10
2022-09-20T15:12:18.430Z,2.00
2022-09-20T15:14:46.308Z,1.80
2022-09-20T15:17:21.304Z,1.90
2022-09-20T15:19:49.529Z,1.70
2022-09-20T15:22:16.443Z,2.10
2022-09-20T15:24:44.255Z,2.80
2022-09-20T15:27:12.434Z,2.50
2022-09-20T15:29:39.799Z,2.50
2022-09-20T15:32:09.402Z,3.10
2022-09-20T15:34:35.995Z,3.30
2022-09-20T15:37:02.562Z,2.90
2022-09-20T15:39:29.203Z,1.80
2022-09-20T15:41:56.585Z,1.90
2022-09-20T15:44:23.107Z,1.80
2022-09-20T15:46:50.923Z,1.70
2022-09-20T15:49:17.504Z,1.90
2022-09-20T15:51:45.847Z,1.90
2022-09-20T15:54:14.072Z,1.80
2022-09-20T15:56:40.953Z,2.30
2022-09-20T15:59:14.858Z,2.60
2022-09-20T16:01:51.486Z,2.40
2022-09-20T16:04:19.753Z,2.80
2022-09-20T16:06:52.338Z,3.10
2022-09-20T16:09:19.622Z,3.40
2022-09-20T16:11:47.415Z,2.80
2022-09-20T16:14:14.565Z,3.30
2022-09-20T16:16:41.157Z,4.20
2022-09-20T16:19:16.620Z,5.00
2022-09-20T16:21:46.564Z,3.40
2022-09-20T16:24:13.379Z,3.20
2022-09-20T16:26:40.451Z,3.80
2022-09-20T16:29:07.279Z,2.40
2022-09-20T16:31:48.366Z,2.40
2022-09-20T16:34:30.047Z,4.10
2022-09-20T16:36:58.472Z,2.40
2022-09-20T16:39:27.134Z,2.70
2022-09-20T16:41:56.699Z,2.10
2022-09-20T16:44:23.925Z,2.70
2022-09-20T16:46:50.965Z,2.10
2022-09-20T16:49:17.639Z,2.40
2022-09-20T16:51:45.692Z,2.50
2022-09-20T16:54:16.990Z,2.40
2022-09-20T16:56:48.787Z,2.30
2022-09-20T16:59:17.980Z,3.00
2022-09-20T17:01:45.011Z,2.90
2022-09-20T17:04:13.721Z,2.70
2022-09-20T17:06:42.655Z,2.30
2022-09-20T17:09:10.552Z,3.40
2022-09-20T17:11:40.587Z,3.10
2022-09-20T17:14:08.976Z,5.50
2022-09-20T17:16:37.741Z,4.70
2022-09-20T17:19:07.346Z,4.10
2022-09-20T17:21:36.600Z,3.40
2022-09-20T17:24:06.135Z,5.20
2022-09-20T17:26:39.791Z,2.90
2022-09-20T17:29:13.951Z,4.40
2022-09-20T17:31:50.100Z,6.00
2022-09-20T17:34:21.098Z,5.00
2022-09-20T17:36:48.226Z,4.30
2022-09-20T17:39:16.101Z,4.30
2022-09-20T17:41:48.660Z,5.00
2022-09-20T17:44:16.034Z,8.70
2022-09-20T17:46:45.019Z,8.70
2022-09-20T17:49:18.286Z,7.00
2022-09-20T17:51:51.483Z,6.80
2022-09-20T17:54:19.126Z,5.50
2022-09-20T17:56:48.768Z,6.10
2022-09-20T17:59:17.323Z,5.90
2022-09-20T18:01:46.479Z,5.60
2022-09-20T18:04:13.608Z,8.60
2022-09-20T18:06:52.500Z,9.10
2022-09-20T18:09:27.220Z,7.50
2022-09-20T18:11:55.249Z,9.10
2022-09-20T18:14:24.552Z,5.80
2022-09-20T18:16:57.411Z,7.30
2022-09-20T18:19:24.253Z,5.10
2022-09-20T18:21:51.331Z,5.60
2022-09-20T18:24:18.073Z,6.10
2022-09-20T18:26:44.728Z,7.90
2022-09-20T18:29:17.173Z,7.40
2022-09-20T18:32:00.292Z,5.90
2022-09-20T18:34:33.399Z,7.40
2022-09-20T18:37:03.302Z,6.70
2022-09-20T18:39:32.623Z,8.30
2022-09-20T18:41:59.411Z,7.30
2022-09-20T18:44:27.618Z,7.60
2022-09-20T18:46:54.353Z,7.60
2022-09-20T18:49:21.435Z,7.30
2022-09-20T18:51:49.448Z,7.20
2022-09-20T18:54:17.389Z,9.00
2022-09-20T18:56:46.475Z,9.10
2022-09-20T18:59:22.009Z,7.20
2022-09-20T19:01:54.744Z,5.70
2022-09-20T19:04:47.483Z,8.90
2022-09-20T19:07:22.506Z,11.30
2022-09-20T19:09:54.539Z,9.00
2022-09-20T19:12:39.592Z,8.10
2022-09-20T19:15:15.450Z,4.90
2022-09-20T19:18:20.386Z,7.40
2022-09-20T19:21:07.764Z,5.90
2022-09-20T19:23:40.568Z,5.50
2022-09-20T19:28:36.835Z,6.50
2022-09-20T19:31:03.919Z,6.70
2022-09-20T19:33:30.765Z,7.20
2022-09-20T19:35:58.593Z,5.30
2022-09-20T19:38:41.852Z,3.60
2022-09-20T19:41:50.097Z,8.00
2022-09-20T19:44:36.342Z,6.10
2022-09-20T19:47:26.790Z,6.80
2022-09-20T19:50:17.605Z,7.00
2022-09-20T19:52:44.375Z,7.50
2022-09-20T19:55:15.006Z,7.60
2022-09-20T19:57:46.289Z,7.20
2022-09-20T20:00:16.538Z,7.90
2022-09-20T20:02:44.421Z,5.80
2022-09-20T20:05:27.989Z,7.90
2022-09-20T20:08:17.463Z,7.70
2022-09-20T20:10:56.377Z,4.90
2022-09-20T20:13:52.737Z,6.60
2022-09-20T20:16:30.224Z,6.00
2022-09-20T20:19:44.135Z,5.00
2022-09-20T20:22:20.995Z,7.80
2022-09-20T20:24:55.247Z,7.80
2022-09-20T20:27:27.735Z,5.70
2022-09-20T20:29:55.156Z,7.60
2022-09-20T20:32:21.963Z,6.70
2022-09-20T20:34:48.838Z,6.10
2022-09-20T20:37:15.483Z,7.10
2022-09-20T20:39:42.101Z,4.80
2022-09-20T20:42:09.484Z,5.00
2022-09-20T20:44:36.166Z,4.80
2022-09-20T20:47:05.506Z,5.40
2022-09-20T20:49:32.435Z,5.00
2022-09-20T20:52:04.123Z,7.40
2022-09-20T20:54:31.625Z,7.70
2022-09-20T20:56:58.939Z,7.10
2022-09-20T20:59:25.881Z,6.90
2022-09-20T21:01:52.604Z,4.20
2022-09-20T21:04:19.395Z,4.30
2022-09-20T21:06:46.033Z,6.80
2022-09-20T21:09:12.996Z,7.30
2022-09-20T21:11:43.583Z,8.10
2022-09-20T21:14:11.958Z,7.10
2022-09-20T21:16:44.780Z,8.00
2022-09-20T21:19:14.402Z,7.50
2022-09-20T21:21:42.943Z,6.10
2022-09-20T21:24:12.174Z,8.40
2022-09-20T21:26:39.388Z,8.60
2022-09-20T21:29:09.352Z,7.40
2022-09-20T21:31:38.870Z,5.40
2022-09-20T21:34:07.638Z,9.40
2022-09-20T21:36:37.321Z,8.00
2022-09-20T21:39:04.928Z,8.80
2022-09-20T21:41:33.819Z,8.50
2022-09-20T21:44:02.234Z,7.80
2022-09-20T21:46:33.104Z,7.90
2022-09-20T21:49:04.244Z,5.70
2022-09-20T21:51:32.634Z,5.50
2022-09-20T21:54:00.814Z,5.50
2022-09-20T21:56:33.256Z,4.70
2022-09-20T21:59:02.131Z,8.00
2022-09-20T22:01:34.402Z,8.00
2022-09-20T22:04:07.061Z,7.70
2022-09-20T22:06:37.063Z,7.10
2022-09-20T22:09:09.759Z,6.90
2022-09-20T22:11:41.535Z,7.10
2022-09-20T22:14:09.940Z,5.40
2022-09-20T22:16:39.324Z,7.30
2022-09-20T22:19:07.788Z,6.90
2022-09-20T22:21:43.359Z,7.00
2022-09-20T22:24:11.818Z,4.10
2022-09-20T22:26:48.586Z,7.00
2022-09-20T22:29:15.748Z,6.60
2022-09-20T22:31:45.070Z,6.00
2022-09-20T22:34:20.484Z,3.60
2022-09-20T22:36:47.392Z,5.20
2022-09-20T22:39:14.899Z,4.00
2022-09-20T22:41:42.086Z,6.10
2022-09-20T22:44:08.987Z,6.00
2022-09-20T22:46:37.535Z,6.30
2022-09-20T22:49:05.562Z,5.00
2022-09-20T22:51:33.334Z,5.70
2022-09-20T22:54:04.008Z,6.50
2022-09-20T22:56:32.445Z,7.30
2022-09-20T22:59:07.824Z,7.10
2022-09-20T23:01:36.884Z,6.80
2022-09-20T23:04:06.990Z,7.10
2022-09-20T23:06:38.218Z,4.40
2022-09-20T23:09:08.442Z,4.80
2022-09-20T23:11:36.168Z,5.10
2022-09-20T23:14:05.231Z,7.10
2022-09-20T23:16:35.279Z,7.10
2022-09-20T23:19:04.316Z,7.30
2022-09-20T23:21:32.030Z,5.40
2022-09-20T23:24:03.465Z,7.40
2022-09-20T23:26:33.051Z,7.80
2022-09-20T23:29:02.707Z,7.20
2022-09-20T23:31:31.444Z,5.20
2022-09-20T23:33:59.830Z,6.60
2022-09-20T23:36:28.985Z,6.20
2022-09-20T23:38:59.295Z,7.90
2022-09-20T23:41:27.453Z,6.40
2022-09-20T23:43:54.661Z,5.70
2022-09-20T23:46:22.807Z,9.20
2022-09-20T23:48:50.359Z,6.00
2022-09-20T23:51:21.918Z,5.50
2022-09-20T23:53:49.098Z,7.00
2022-09-20T23:56:15.710Z,7.00
2022-09-20T23:58:43.590Z,7.20
